sensor_id;sensor_type;location;lat;lon;timestamp;P1;durP1;ratioP1;P2;durP2;ratioP2
16957;SDS011;8595;52.542;11.974;2022-07-23T00:02:18;11.10;;;7.28;;
16957;SDS011;8595;52.542;11.974;2022-07-23T00:04:44;9.05;;;7.90;;
16957;SDS011;8595;52.542;11.974;2022-07-23T00:07:11;10.80;;;8.00;;
16957;SDS011;8595;52.542;11.974;2022-07-23T00:09:37;9.95;;;8.02;;
16957;SDS011;8595;52.542;11.974;2022-07-23T00:12:06;9.75;;;7.00;;
16957;SDS011;8595;52.542;11.974;2022-07-23T00:14:32;11.82;;;8.07;;
16957;SDS011;8595;52.542;11.974;2022-07-23T00:16:59;10.93;;;7.85;;
16957;SDS011;8595;52.542;11.974;2022-07-23T00:19:26;9.82;;;7.32;;
16957;SDS011;8595;52.542;11.974;2022-07-23T00:21:54;9.05;;;7.45;;
16957;SDS011;8595;52.542;11.974;2022-07-23T00:24:20;10.20;;;7.38;;
16957;SDS011;8595;52.542;11.974;2022-07-23T00:26:47;12.07;;;7.95;;
16957;SDS011;8595;52.542;11.974;2022-07-23T00:29:15;10.00;;;7.60;;
16957;SDS011;8595;52.542;11.974;2022-07-23T00:31:41;10.13;;;7.43;;
16957;SDS011;8595;52.542;11.974;2022-07-23T00:34:08;8.20;;;7.30;;
16957;SDS011;8595;52.542;11.974;2022-07-23T00:36:35;8.63;;;7.18;;
16957;SDS011;8595;52.542;11.974;2022-07-23T00:39:01;13.77;;;8.23;;
16957;SDS011;8595;52.542;11.974;2022-07-23T00:41:28;11.40;;;7.43;;
16957;SDS011;8595;52.542;11.974;2022-07-23T00:43:55;10.68;;;7.38;;
16957;SDS011;8595;52.542;11.974;2022-07-23T00:46:44;9.30;;;8.38;;
16957;SDS011;8595;52.542;11.974;2022-07-23T00:49:11;15.30;;;8.15;;
16957;SDS011;8595;52.542;11.974;2022-07-23T00:51:38;12.88;;;8.50;;
16957;SDS011;8595;52.542;11.974;2022-07-23T00:54:05;8.35;;;7.05;;
16957;SDS011;8595;52.542;11.974;2022-07-23T00:56:31;9.63;;;8.02;;
16957;SDS011;8595;52.542;11.974;2022-07-23T00:58:59;12.90;;;9.45;;
16957;SDS011;8595;52.542;11.974;2022-07-23T01:01:26;8.70;;;7.80;;
16957;SDS011;8595;52.542;11.974;2022-07-23T01:03:54;10.52;;;8.15;;
16957;SDS011;8595;52.542;11.974;2022-07-23T01:06:21;12.77;;;8.25;;
16957;SDS011;8595;52.542;11.974;2022-07-23T01:08:48;11.70;;;9.27;;
16957;SDS011;8595;52.542;11.974;2022-07-23T01:11:14;12.63;;;9.15;;
16957;SDS011;8595;52.542;11.974;2022-07-23T01:13:43;10.25;;;8.93;;
16957;SDS011;8595;52.542;11.974;2022-07-23T01:16:10;11.68;;;8.45;;
16957;SDS011;8595;52.542;11.974;2022-07-23T01:18:36;9.00;;;8.10;;
16957;SDS011;8595;52.542;11.974;2022-07-23T01:21:04;9.65;;;8.65;;
16957;SDS011;8595;52.542;11.974;2022-07-23T01:23:33;11.07;;;8.38;;
16957;SDS011;8595;52.542;11.974;2022-07-23T01:25:59;11.52;;;8.40;;
16957;SDS011;8595;52.542;11.974;2022-07-23T01:28:26;10.38;;;8.30;;
16957;SDS011;8595;52.542;11.974;2022-07-23T01:30:53;10.02;;;8.32;;
16957;SDS011;8595;52.542;11.974;2022-07-23T01:33:19;11.25;;;9.05;;
16957;SDS011;8595;52.542;11.974;2022-07-23T01:35:46;11.63;;;8.00;;
16957;SDS011;8595;52.542;11.974;2022-07-23T01:38:12;9.70;;;8.25;;
16957;SDS011;8595;52.542;11.974;2022-07-23T01:40:41;10.65;;;8.57;;
16957;SDS011;8595;52.542;11.974;2022-07-23T01:43:07;11.30;;;9.38;;
16957;SDS011;8595;52.542;11.974;2022-07-23T01:45:34;10.73;;;9.57;;
16957;SDS011;8595;52.542;11.974;2022-07-23T01:48:01;9.93;;;8.93;;
16957;SDS011;8595;52.542;11.974;2022-07-23T01:50:27;13.15;;;9.32;;
16957;SDS011;8595;52.542;11.974;2022-07-23T01:52:54;10.30;;;9.02;;
16957;SDS011;8595;52.542;11.974;2022-07-23T01:55:21;10.30;;;7.95;;
16957;SDS011;8595;52.542;11.974;2022-07-23T01:57:49;12.45;;;9.82;;
16957;SDS011;8595;52.542;11.974;2022-07-23T02:00:15;12.85;;;9.93;;
16957;SDS011;8595;52.542;11.974;2022-07-23T02:02:42;9.98;;;8.98;;
16957;SDS011;8595;52.542;11.974;2022-07-23T02:05:09;17.05;;;9.85;;
16957;SDS011;8595;52.542;11.974;2022-07-23T02:07:36;17.67;;;10.10;;
16957;SDS011;8595;52.542;11.974;2022-07-23T02:10:02;11.63;;;9.48;;
16957;SDS011;8595;52.542;11.974;2022-07-23T02:12:30;10.70;;;9.60;;
16957;SDS011;8595;52.542;11.974;2022-07-23T02:14:58;13.48;;;9.52;;
16957;SDS011;8595;52.542;11.974;2022-07-23T02:17:24;12.95;;;9.98;;
16957;SDS011;8595;52.542;11.974;2022-07-23T02:19:51;11.65;;;9.52;;
16957;SDS011;8595;52.542;11.974;2022-07-23T02:22:18;12.15;;;8.85;;
16957;SDS011;8595;52.542;11.974;2022-07-23T02:24:44;10.07;;;9.07;;
16957;SDS011;8595;52.542;11.974;2022-07-23T02:27:11;11.05;;;9.27;;
16957;SDS011;8595;52.542;11.974;2022-07-23T02:29:38;11.43;;;8.43;;
16957;SDS011;8595;52.542;11.974;2022-07-23T02:32:06;10.60;;;8.98;;
16957;SDS011;8595;52.542;11.974;2022-07-23T02:34:32;10.02;;;9.00;;
16957;SDS011;8595;52.542;11.974;2022-07-23T02:36:59;10.23;;;8.30;;
16957;SDS011;8595;52.542;11.974;2022-07-23T02:39:27;9.60;;;8.70;;
16957;SDS011;8595;52.542;11.974;2022-07-23T02:41:54;12.40;;;10.13;;
16957;SDS011;8595;52.542;11.974;2022-07-23T02:44:20;9.45;;;8.45;;
16957;SDS011;8595;52.542;11.974;2022-07-23T02:46:47;10.35;;;8.63;;
16957;SDS011;8595;52.542;11.974;2022-07-23T02:49:15;10.70;;;9.35;;
16957;SDS011;8595;52.542;11.974;2022-07-23T02:51:42;10.07;;;9.07;;
16957;SDS011;8595;52.542;11.974;2022-07-23T02:54:08;11.43;;;9.20;;
16957;SDS011;8595;52.542;11.974;2022-07-23T02:56:35;15.45;;;9.23;;
16957;SDS011;8595;52.542;11.974;2022-07-23T02:59:02;12.30;;;9.02;;
16957;SDS011;8595;52.542;11.974;2022-07-23T03:01:28;9.18;;;8.32;;
16957;SDS011;8595;52.542;11.974;2022-07-23T03:03:55;9.45;;;8.20;;
16957;SDS011;8595;52.542;11.974;2022-07-23T03:06:23;13.27;;;9.85;;
16957;SDS011;8595;52.542;11.974;2022-07-23T03:08:49;13.18;;;8.88;;
16957;SDS011;8595;52.542;11.974;2022-07-23T03:11:17;10.63;;;8.80;;
16957;SDS011;8595;52.542;11.974;2022-07-23T03:13:44;10.82;;;8.52;;
16957;SDS011;8595;52.542;11.974;2022-07-23T03:16:11;10.25;;;8.73;;
16957;SDS011;8595;52.542;11.974;2022-07-23T03:18:37;10.80;;;9.45;;
16957;SDS011;8595;52.542;11.974;2022-07-23T03:21:04;10.55;;;9.35;;
16957;SDS011;8595;52.542;11.974;2022-07-23T03:23:32;11.52;;;9.75;;
16957;SDS011;8595;52.542;11.974;2022-07-23T03:25:59;14.13;;;9.90;;
16957;SDS011;8595;52.542;11.974;2022-07-23T03:28:25;11.35;;;8.77;;
16957;SDS011;8595;52.542;11.974;2022-07-23T03:30:52;9.80;;;8.90;;
16957;SDS011;8595;52.542;11.974;2022-07-23T03:33:19;10.30;;;8.57;;
16957;SDS011;8595;52.542;11.974;2022-07-23T03:35:46;10.82;;;8.57;;
16957;SDS011;8595;52.542;11.974;2022-07-23T03:38:13;9.77;;;8.85;;
16957;SDS011;8595;52.542;11.974;2022-07-23T03:40:42;11.23;;;9.90;;
16957;SDS011;8595;52.542;11.974;2022-07-23T03:43:11;11.50;;;9.13;;
16957;SDS011;8595;52.542;11.974;2022-07-23T03:45:37;10.70;;;9.45;;
16957;SDS011;8595;52.542;11.974;2022-07-23T03:48:04;10.52;;;9.55;;
16957;SDS011;8595;52.542;11.974;2022-07-23T03:50:31;10.52;;;9.10;;
16957;SDS011;8595;52.542;11.974;2022-07-23T03:52:59;12.98;;;9.80;;
16957;SDS011;8595;52.542;11.974;2022-07-23T03:55:26;13.23;;;9.50;;
16957;SDS011;8595;52.542;11.974;2022-07-23T03:57:54;11.27;;;9.80;;
16957;SDS011;8595;52.542;11.974;2022-07-23T04:00:21;14.20;;;8.70;;
16957;SDS011;8595;52.542;11.974;2022-07-23T04:02:47;12.73;;;10.38;;
16957;SDS011;8595;52.542;11.974;2022-07-23T04:05:14;12.85;;;9.98;;
16957;SDS011;8595;52.542;11.974;2022-07-23T04:07:40;10.02;;;9.05;;
16957;SDS011;8595;52.542;11.974;2022-07-23T04:10:07;13.55;;;10.25;;
16957;SDS011;8595;52.542;11.974;2022-07-23T04:12:34;11.75;;;9.45;;
16957;SDS011;8595;52.542;11.974;2022-07-23T04:15:03;12.77;;;9.95;;
16957;SDS011;8595;52.542;11.974;2022-07-23T04:17:30;12.85;;;9.48;;
16957;SDS011;8595;52.542;11.974;2022-07-23T04:19:57;12.13;;;9.48;;
16957;SDS011;8595;52.542;11.974;2022-07-23T04:22:24;12.15;;;10.10;;
16957;SDS011;8595;52.542;11.974;2022-07-23T04:24:50;10.65;;;9.20;;
16957;SDS011;8595;52.542;11.974;2022-07-23T04:27:17;11.50;;;9.48;;
16957;SDS011;8595;52.542;11.974;2022-07-23T04:29:44;10.20;;;9.30;;
16957;SDS011;8595;52.542;11.974;2022-07-23T04:32:12;13.73;;;9.60;;
16957;SDS011;8595;52.542;11.974;2022-07-23T04:34:39;10.88;;;9.15;;
16957;SDS011;8595;52.542;11.974;2022-07-23T04:37:05;10.88;;;9.77;;
16957;SDS011;8595;52.542;11.974;2022-07-23T04:39:32;10.93;;;9.80;;
16957;SDS011;8595;52.542;11.974;2022-07-23T04:41:59;13.82;;;10.88;;
16957;SDS011;8595;52.542;11.974;2022-07-23T04:44:26;13.18;;;10.95;;
16957;SDS011;8595;52.542;11.974;2022-07-23T04:46:52;11.90;;;10.68;;
16957;SDS011;8595;52.542;11.974;2022-07-23T04:49:23;16.20;;;10.95;;
16957;SDS011;8595;52.542;11.974;2022-07-23T04:51:50;11.43;;;9.77;;
16957;SDS011;8595;52.542;11.974;2022-07-23T04:54:17;14.95;;;10.52;;
16957;SDS011;8595;52.542;11.974;2022-07-23T04:56:43;14.32;;;10.35;;
16957;SDS011;8595;52.542;11.974;2022-07-23T04:59:10;13.07;;;9.38;;
16957;SDS011;8595;52.542;11.974;2022-07-23T05:01:36;12.07;;;10.02;;
16957;SDS011;8595;52.542;11.974;2022-07-23T05:04:03;12.60;;;11.35;;
16957;SDS011;8595;52.542;11.974;2022-07-23T05:06:31;12.75;;;11.27;;
16957;SDS011;8595;52.542;11.974;2022-07-23T05:08:58;11.98;;;10.73;;
16957;SDS011;8595;52.542;11.974;2022-07-23T05:11:24;14.80;;;10.32;;
16957;SDS011;8595;52.542;11.974;2022-07-23T05:13:51;14.18;;;11.13;;
16957;SDS011;8595;52.542;11.974;2022-07-23T05:16:18;11.95;;;10.68;;
16957;SDS011;8595;52.542;11.974;2022-07-23T05:18:44;14.00;;;12.38;;
16957;SDS011;8595;52.542;11.974;2022-07-23T05:21:11;14.18;;;11.25;;
16957;SDS011;8595;52.542;11.974;2022-07-23T05:23:39;13.35;;;11.93;;
16957;SDS011;8595;52.542;11.974;2022-07-23T05:26:05;13.85;;;10.88;;
16957;SDS011;8595;52.542;11.974;2022-07-23T05:28:32;11.30;;;10.18;;
16957;SDS011;8595;52.542;11.974;2022-07-23T05:30:59;18.42;;;10.75;;
16957;SDS011;8595;52.542;11.974;2022-07-23T05:33:25;11.93;;;9.98;;
16957;SDS011;8595;52.542;11.974;2022-07-23T05:35:52;13.40;;;10.65;;
16957;SDS011;8595;52.542;11.974;2022-07-23T05:38:18;12.63;;;11.05;;
16957;SDS011;8595;52.542;11.974;2022-07-23T05:40:46;10.73;;;9.68;;
16957;SDS011;8595;52.542;11.974;2022-07-23T05:43:13;14.82;;;12.60;;
16957;SDS011;8595;52.542;11.974;2022-07-23T05:45:40;15.68;;;12.30;;
16957;SDS011;8595;52.542;11.974;2022-07-23T05:48:06;13.15;;;11.43;;
16957;SDS011;8595;52.542;11.974;2022-07-23T05:50:33;12.38;;;10.25;;
16957;SDS011;8595;52.542;11.974;2022-07-23T05:52:59;13.85;;;11.07;;
16957;SDS011;8595;52.542;11.974;2022-07-23T05:55:26;13.77;;;11.05;;
16957;SDS011;8595;52.542;11.974;2022-07-23T05:57:55;15.73;;;11.45;;
16957;SDS011;8595;52.542;11.974;2022-07-23T06:00:22;13.32;;;10.75;;
16957;SDS011;8595;52.542;11.974;2022-07-23T06:02:49;12.18;;;10.90;;
16957;SDS011;8595;52.542;11.974;2022-07-23T06:05:16;15.05;;;10.80;;
16957;SDS011;8595;52.542;11.974;2022-07-23T06:07:43;15.65;;;11.60;;
16957;SDS011;8595;52.542;11.974;2022-07-23T06:10:10;13.48;;;11.00;;
16957;SDS011;8595;52.542;11.974;2022-07-23T06:12:36;18.27;;;12.38;;
16957;SDS011;8595;52.542;11.974;2022-07-23T06:15:05;12.50;;;10.85;;
16957;SDS011;8595;52.542;11.974;2022-07-23T06:17:32;12.85;;;11.50;;
16957;SDS011;8595;52.542;11.974;2022-07-23T06:19:59;12.75;;;10.80;;
16957;SDS011;8595;52.542;11.974;2022-07-23T06:22:26;15.07;;;12.10;;
16957;SDS011;8595;52.542;11.974;2022-07-23T06:24:53;12.05;;;10.82;;
16957;SDS011;8595;52.542;11.974;2022-07-23T06:27:19;13.10;;;10.02;;
16957;SDS011;8595;52.542;11.974;2022-07-23T06:29:46;13.00;;;11.27;;
16957;SDS011;8595;52.542;11.974;2022-07-23T06:32:14;12.35;;;11.07;;
16957;SDS011;8595;52.542;11.974;2022-07-23T06:34:40;16.42;;;14.55;;
16957;SDS011;8595;52.542;11.974;2022-07-23T06:37:07;12.63;;;10.68;;
16957;SDS011;8595;52.542;11.974;2022-07-23T06:39:34;12.38;;;11.07;;
16957;SDS011;8595;52.542;11.974;2022-07-23T06:42:00;11.95;;;10.75;;
16957;SDS011;8595;52.542;11.974;2022-07-23T06:44:27;14.73;;;12.63;;
16957;SDS011;8595;52.542;11.974;2022-07-23T06:46:54;14.02;;;12.57;;
16957;SDS011;8595;52.542;11.974;2022-07-23T06:49:22;13.73;;;10.80;;
16957;SDS011;8595;52.542;11.974;2022-07-23T06:51:48;10.55;;;9.32;;
16957;SDS011;8595;52.542;11.974;2022-07-23T06:54:15;13.25;;;10.95;;
16957;SDS011;8595;52.542;11.974;2022-07-23T06:56:42;14.18;;;10.40;;
16957;SDS011;8595;52.542;11.974;2022-07-23T06:59:08;12.93;;;9.80;;
16957;SDS011;8595;52.542;11.974;2022-07-23T07:01:35;15.80;;;12.65;;
16957;SDS011;8595;52.542;11.974;2022-07-23T07:04:03;16.48;;;9.57;;
16957;SDS011;8595;52.542;11.974;2022-07-23T07:06:31;13.10;;;10.18;;
16957;SDS011;8595;52.542;11.974;2022-07-23T07:08:58;12.10;;;10.50;;
16957;SDS011;8595;52.542;11.974;2022-07-23T07:11:24;13.13;;;10.73;;
16957;SDS011;8595;52.542;11.974;2022-07-23T07:13:51;17.45;;;10.30;;
16957;SDS011;8595;52.542;11.974;2022-07-23T07:16:18;13.63;;;11.13;;
16957;SDS011;8595;52.542;11.974;2022-07-23T07:18:45;13.90;;;10.00;;
16957;SDS011;8595;52.542;11.974;2022-07-23T07:21:11;10.27;;;9.27;;
16957;SDS011;8595;52.542;11.974;2022-07-23T07:23:39;13.70;;;11.27;;
16957;SDS011;8595;52.542;11.974;2022-07-23T07:26:06;9.93;;;8.95;;
16957;SDS011;8595;52.542;11.974;2022-07-23T07:28:33;12.07;;;10.68;;
16957;SDS011;8595;52.542;11.974;2022-07-23T07:30:59;12.45;;;8.98;;
16957;SDS011;8595;52.542;11.974;2022-07-23T07:33:26;12.00;;;8.95;;
16957;SDS011;8595;52.542;11.974;2022-07-23T07:35:53;10.35;;;9.07;;
16957;SDS011;8595;52.542;11.974;2022-07-23T07:38:20;12.75;;;9.15;;
16957;SDS011;8595;52.542;11.974;2022-07-23T07:40:48;10.77;;;8.88;;
16957;SDS011;8595;52.542;11.974;2022-07-23T07:43:15;14.82;;;9.35;;
16957;SDS011;8595;52.542;11.974;2022-07-23T07:45:41;12.10;;;8.30;;
16957;SDS011;8595;52.542;11.974;2022-07-23T07:48:08;16.38;;;10.20;;
16957;SDS011;8595;52.542;11.974;2022-07-23T07:50:34;9.90;;;8.55;;
16957;SDS011;8595;52.542;11.974;2022-07-23T07:53:01;8.32;;;7.47;;
16957;SDS011;8595;52.542;11.974;2022-07-23T07:55:28;12.93;;;7.03;;
16957;SDS011;8595;52.542;11.974;2022-07-23T07:57:57;10.77;;;6.63;;
16957;SDS011;8595;52.542;11.974;2022-07-23T08:00:23;10.35;;;6.35;;
16957;SDS011;8595;52.542;11.974;2022-07-23T08:02:51;10.25;;;5.03;;
16957;SDS011;8595;52.542;11.974;2022-07-23T08:05:19;6.80;;;5.15;;
16957;SDS011;8595;52.542;11.974;2022-07-23T08:07:47;12.15;;;6.20;;
16957;SDS011;8595;52.542;11.974;2022-07-23T08:10:14;8.00;;;5.97;;
16957;SDS011;8595;52.542;11.974;2022-07-23T08:12:42;10.68;;;6.28;;
16957;SDS011;8595;52.542;11.974;2022-07-23T08:15:12;8.75;;;6.45;;
16957;SDS011;8595;52.542;11.974;2022-07-23T08:17:40;11.38;;;6.28;;
16957;SDS011;8595;52.542;11.974;2022-07-23T08:20:07;10.10;;;5.90;;
16957;SDS011;8595;52.542;11.974;2022-07-23T08:22:46;7.95;;;5.70;;
16957;SDS011;8595;52.542;11.974;2022-07-23T08:25:15;6.93;;;5.35;;
16957;SDS011;8595;52.542;11.974;2022-07-23T08:27:45;8.38;;;5.45;;
16957;SDS011;8595;52.542;11.974;2022-07-23T08:30:13;7.82;;;5.68;;
16957;SDS011;8595;52.542;11.974;2022-07-23T08:32:47;10.73;;;5.65;;
16957;SDS011;8595;52.542;11.974;2022-07-23T08:35:21;10.95;;;7.75;;
16957;SDS011;8595;52.542;11.974;2022-07-23T08:37:49;9.65;;;6.18;;
16957;SDS011;8595;52.542;11.974;2022-07-23T08:40:16;8.15;;;5.63;;
16957;SDS011;8595;52.542;11.974;2022-07-23T08:42:44;8.07;;;5.05;;
16957;SDS011;8595;52.542;11.974;2022-07-23T08:45:15;7.65;;;4.47;;
16957;SDS011;8595;52.542;11.974;2022-07-23T08:47:44;7.53;;;5.22;;
16957;SDS011;8595;52.542;11.974;2022-07-23T08:50:11;6.57;;;5.20;;
16957;SDS011;8595;52.542;11.974;2022-07-23T08:52:37;7.80;;;5.07;;
16957;SDS011;8595;52.542;11.974;2022-07-23T08:55:06;5.68;;;4.50;;
16957;SDS011;8595;52.542;11.974;2022-07-23T08:57:34;9.98;;;4.25;;
16957;SDS011;8595;52.542;11.974;2022-07-23T09:00:00;6.82;;;3.78;;
16957;SDS011;8595;52.542;11.974;2022-07-23T09:02:29;5.53;;;3.83;;
16957;SDS011;8595;52.542;11.974;2022-07-23T09:04:56;9.68;;;4.40;;
16957;SDS011;8595;52.542;11.974;2022-07-23T09:07:23;8.80;;;4.43;;
16957;SDS011;8595;52.542;11.974;2022-07-23T09:09:55;9.05;;;4.00;;
16957;SDS011;8595;52.542;11.974;2022-07-23T09:12:32;10.30;;;4.50;;
16957;SDS011;8595;52.542;11.974;2022-07-23T09:15:02;8.18;;;4.45;;
16957;SDS011;8595;52.542;11.974;2022-07-23T09:17:36;6.93;;;4.25;;
16957;SDS011;8595;52.542;11.974;2022-07-23T09:20:08;6.50;;;3.95;;
16957;SDS011;8595;52.542;11.974;2022-07-23T09:22:36;8.38;;;4.32;;
16957;SDS011;8595;52.542;11.974;2022-07-23T09:25:04;8.05;;;4.00;;
16957;SDS011;8595;52.542;11.974;2022-07-23T09:27:46;7.30;;;4.63;;
16957;SDS011;8595;52.542;11.974;2022-07-23T09:30:15;6.47;;;3.35;;
16957;SDS011;8595;52.542;11.974;2022-07-23T09:32:43;6.07;;;3.08;;
16957;SDS011;8595;52.542;11.974;2022-07-23T09:35:10;8.30;;;3.67;;
16957;SDS011;8595;52.542;11.974;2022-07-23T09:37:37;5.13;;;2.85;;
16957;SDS011;8595;52.542;11.974;2022-07-23T09:40:04;3.30;;;3.00;;
16957;SDS011;8595;52.542;11.974;2022-07-23T09:42:32;5.80;;;3.80;;
16957;SDS011;8595;52.542;11.974;2022-07-23T09:44:59;6.93;;;3.30;;
16957;SDS011;8595;52.542;11.974;2022-07-23T09:47:27;4.90;;;3.08;;
16957;SDS011;8595;52.542;11.974;2022-07-23T09:50:00;7.63;;;3.25;;
16957;SDS011;8595;52.542;11.974;2022-07-23T09:52:30;4.97;;;2.80;;
16957;SDS011;8595;52.542;11.974;2022-07-23T09:54:59;3.10;;;2.47;;
16957;SDS011;8595;52.542;11.974;2022-07-23T09:57:27;5.55;;;3.05;;
16957;SDS011;8595;52.542;11.974;2022-07-23T09:59:55;6.80;;;3.28;;
16957;SDS011;8595;52.542;11.974;2022-07-23T10:02:24;8.05;;;2.88;;
16957;SDS011;8595;52.542;11.974;2022-07-23T10:04:53;4.00;;;2.65;;
16957;SDS011;8595;52.542;11.974;2022-07-23T10:07:22;10.75;;;3.50;;
16957;SDS011;8595;52.542;11.974;2022-07-23T10:09:52;4.00;;;2.70;;
16957;SDS011;8595;52.542;11.974;2022-07-23T10:12:20;5.82;;;2.70;;
16957;SDS011;8595;52.542;11.974;2022-07-23T10:14:51;2.97;;;2.55;;
16957;SDS011;8595;52.542;11.974;2022-07-23T10:17:17;7.10;;;3.60;;
16957;SDS011;8595;52.542;11.974;2022-07-23T10:19:44;4.45;;;2.42;;
16957;SDS011;8595;52.542;11.974;2022-07-23T10:22:12;6.22;;;3.20;;
16957;SDS011;8595;52.542;11.974;2022-07-23T10:24:55;3.95;;;2.45;;
16957;SDS011;8595;52.542;11.974;2022-07-23T10:27:34;3.58;;;2.58;;
16957;SDS011;8595;52.542;11.974;2022-07-23T10:30:17;3.80;;;2.55;;
16957;SDS011;8595;52.542;11.974;2022-07-23T10:32:50;4.90;;;2.40;;
16957;SDS011;8595;52.542;11.974;2022-07-23T10:35:24;4.07;;;2.75;;
16957;SDS011;8595;52.542;11.974;2022-07-23T10:38:01;4.93;;;2.88;;
16957;SDS011;8595;52.542;11.974;2022-07-23T10:40:34;5.40;;;2.70;;
16957;SDS011;8595;52.542;11.974;2022-07-23T10:43:01;3.65;;;2.40;;
16957;SDS011;8595;52.542;11.974;2022-07-23T10:45:29;5.03;;;2.47;;
16957;SDS011;8595;52.542;11.974;2022-07-23T10:48:11;5.60;;;2.92;;
16957;SDS011;8595;52.542;11.974;2022-07-23T10:50:42;6.90;;;3.13;;
16957;SDS011;8595;52.542;11.974;2022-07-23T10:53:12;7.95;;;2.47;;
16957;SDS011;8595;52.542;11.974;2022-07-23T10:55:44;5.55;;;2.47;;
16957;SDS011;8595;52.542;11.974;2022-07-23T10:58:20;5.53;;;2.45;;
16957;SDS011;8595;52.542;11.974;2022-07-23T11:00:48;5.75;;;2.40;;
16957;SDS011;8595;52.542;11.974;2022-07-23T11:06:04;6.72;;;2.25;;
16957;SDS011;8595;52.542;11.974;2022-07-23T11:08:31;6.10;;;2.42;;
16957;SDS011;8595;52.542;11.974;2022-07-23T11:13:47;6.38;;;2.33;;
16957;SDS011;8595;52.542;11.974;2022-07-23T11:16:24;3.67;;;2.50;;
16957;SDS011;8595;52.542;11.974;2022-07-23T11:18:52;4.50;;;2.45;;
16957;SDS011;8595;52.542;11.974;2022-07-23T11:21:43;4.78;;;2.08;;
16957;SDS011;8595;52.542;11.974;2022-07-23T11:24:15;4.75;;;2.00;;
16957;SDS011;8595;52.542;11.974;2022-07-23T11:26:45;3.80;;;1.70;;
16957;SDS011;8595;52.542;11.974;2022-07-23T11:37:54;6.68;;;2.03;;
16957;SDS011;8595;52.542;11.974;2022-07-23T11:40:29;2.53;;;1.90;;
16957;SDS011;8595;52.542;11.974;2022-07-23T11:42:57;2.95;;;1.65;;
16957;SDS011;8595;52.542;11.974;2022-07-23T11:45:31;1.88;;;1.50;;
16957;SDS011;8595;52.542;11.974;2022-07-23T11:47:59;3.22;;;1.67;;
16957;SDS011;8595;52.542;11.974;2022-07-23T11:50:26;3.05;;;1.77;;
16957;SDS011;8595;52.542;11.974;2022-07-23T11:52:53;4.55;;;1.50;;
16957;SDS011;8595;52.542;11.974;2022-07-23T11:55:20;4.38;;;1.55;;
16957;SDS011;8595;52.542;11.974;2022-07-23T11:57:47;3.97;;;1.73;;
16957;SDS011;8595;52.542;11.974;2022-07-23T12:00:18;3.10;;;1.35;;
16957;SDS011;8595;52.542;11.974;2022-07-23T12:02:46;3.45;;;1.23;;
16957;SDS011;8595;52.542;11.974;2022-07-23T12:05:14;2.10;;;1.50;;
16957;SDS011;8595;52.542;11.974;2022-07-23T12:07:42;5.18;;;1.50;;
16957;SDS011;8595;52.542;11.974;2022-07-23T12:10:15;5.10;;;1.25;;
16957;SDS011;8595;52.542;11.974;2022-07-23T12:12:43;3.17;;;1.30;;
16957;SDS011;8595;52.542;11.974;2022-07-23T12:15:12;3.33;;;1.67;;
16957;SDS011;8595;52.542;11.974;2022-07-23T12:17:42;1.70;;;1.30;;
16957;SDS011;8595;52.542;11.974;2022-07-23T12:20:11;5.80;;;1.38;;
16957;SDS011;8595;52.542;11.974;2022-07-23T12:22:41;3.22;;;1.25;;
16957;SDS011;8595;52.542;11.974;2022-07-23T12:25:10;1.60;;;1.20;;
16957;SDS011;8595;52.542;11.974;2022-07-23T12:27:37;5.07;;;1.85;;
16957;SDS011;8595;52.542;11.974;2022-07-23T12:30:20;3.00;;;1.38;;
16957;SDS011;8595;52.542;11.974;2022-07-23T12:32:53;3.08;;;1.40;;
16957;SDS011;8595;52.542;11.974;2022-07-23T12:35:22;3.90;;;1.20;;
16957;SDS011;8595;52.542;11.974;2022-07-23T12:37:59;2.58;;;1.10;;
16957;SDS011;8595;52.542;11.974;2022-07-23T12:40:27;2.35;;;1.25;;
16957;SDS011;8595;52.542;11.974;2022-07-23T12:42:56;1.90;;;1.50;;
16957;SDS011;8595;52.542;11.974;2022-07-23T12:45:25;4.45;;;1.55;;
16957;SDS011;8595;52.542;11.974;2022-07-23T12:48:04;1.77;;;1.08;;
16957;SDS011;8595;52.542;11.974;2022-07-23T12:50:36;2.13;;;1.45;;
16957;SDS011;8595;52.542;11.974;2022-07-23T12:53:09;2.97;;;1.50;;
16957;SDS011;8595;52.542;11.974;2022-07-23T12:55:38;2.20;;;1.65;;
16957;SDS011;8595;52.542;11.974;2022-07-23T12:58:07;2.92;;;1.40;;
16957;SDS011;8595;52.542;11.974;2022-07-23T13:00:50;4.47;;;1.40;;
16957;SDS011;8595;52.542;11.974;2022-07-23T13:03:26;3.97;;;1.15;;
16957;SDS011;8595;52.542;11.974;2022-07-23T13:05:59;2.13;;;1.10;;
16957;SDS011;8595;52.542;11.974;2022-07-23T13:08:27;2.72;;;1.73;;
16957;SDS011;8595;52.542;11.974;2022-07-23T13:10:55;2.47;;;1.58;;
16957;SDS011;8595;52.542;11.974;2022-07-23T13:13:22;2.65;;;1.40;;
16957;SDS011;8595;52.542;11.974;2022-07-23T13:15:50;3.08;;;1.30;;
16957;SDS011;8595;52.542;11.974;2022-07-23T13:18:17;2.65;;;1.27;;
16957;SDS011;8595;52.542;11.974;2022-07-23T13:20:46;2.40;;;1.30;;
16957;SDS011;8595;52.542;11.974;2022-07-23T13:23:14;3.25;;;1.45;;
16957;SDS011;8595;52.542;11.974;2022-07-23T13:25:41;2.88;;;1.40;;
16957;SDS011;8595;52.542;11.974;2022-07-23T13:28:08;2.90;;;1.30;;
16957;SDS011;8595;52.542;11.974;2022-07-23T13:30:35;2.55;;;1.33;;
16957;SDS011;8595;52.542;11.974;2022-07-23T13:33:02;2.78;;;1.75;;
16957;SDS011;8595;52.542;11.974;2022-07-23T13:35:29;2.17;;;1.10;;
16957;SDS011;8595;52.542;11.974;2022-07-23T13:37:57;3.63;;;1.30;;
16957;SDS011;8595;52.542;11.974;2022-07-23T13:40:24;2.83;;;1.30;;
16957;SDS011;8595;52.542;11.974;2022-07-23T13:42:51;5.97;;;1.50;;
16957;SDS011;8595;52.542;11.974;2022-07-23T13:45:18;4.90;;;1.60;;
16957;SDS011;8595;52.542;11.974;2022-07-23T13:47:46;1.85;;;1.30;;
16957;SDS011;8595;52.542;11.974;2022-07-23T13:50:13;2.90;;;1.67;;
16957;SDS011;8595;52.542;11.974;2022-07-23T13:52:41;2.45;;;1.40;;
16957;SDS011;8595;52.542;11.974;2022-07-23T13:55:09;3.63;;;1.55;;
16957;SDS011;8595;52.542;11.974;2022-07-23T13:57:36;3.72;;;1.50;;
16957;SDS011;8595;52.542;11.974;2022-07-23T14:00:03;3.42;;;1.52;;
16957;SDS011;8595;52.542;11.974;2022-07-23T14:02:32;3.22;;;1.55;;
16957;SDS011;8595;52.542;11.974;2022-07-23T14:04:59;2.92;;;1.10;;
16957;SDS011;8595;52.542;11.974;2022-07-23T14:07:25;1.98;;;1.27;;
16957;SDS011;8595;52.542;11.974;2022-07-23T14:09:52;2.38;;;1.20;;
16957;SDS011;8595;52.542;11.974;2022-07-23T14:12:20;1.63;;;1.20;;
16957;SDS011;8595;52.542;11.974;2022-07-23T14:14:47;2.40;;;1.20;;
16957;SDS011;8595;52.542;11.974;2022-07-23T14:17:13;1.67;;;1.02;;
16957;SDS011;8595;52.542;11.974;2022-07-23T14:19:40;1.80;;;1.00;;
16957;SDS011;8595;52.542;11.974;2022-07-23T14:22:07;2.13;;;1.20;;
16957;SDS011;8595;52.542;11.974;2022-07-23T14:24:33;2.22;;;1.40;;
16957;SDS011;8595;52.542;11.974;2022-07-23T14:27:00;1.73;;;1.10;;
16957;SDS011;8595;52.542;11.974;2022-07-23T14:29:28;3.17;;;1.38;;
16957;SDS011;8595;52.542;11.974;2022-07-23T14:31:56;1.75;;;1.10;;
16957;SDS011;8595;52.542;11.974;2022-07-23T14:34:23;2.15;;;1.00;;
16957;SDS011;8595;52.542;11.974;2022-07-23T14:36:51;9.80;;;1.20;;
16957;SDS011;8595;52.542;11.974;2022-07-23T14:39:18;2.17;;;1.00;;
16957;SDS011;8595;52.542;11.974;2022-07-23T14:41:45;1.67;;;1.00;;
16957;SDS011;8595;52.542;11.974;2022-07-23T14:44:12;3.63;;;1.20;;
16957;SDS011;8595;52.542;11.974;2022-07-23T14:46:40;2.00;;;1.20;;
16957;SDS011;8595;52.542;11.974;2022-07-23T14:49:06;3.53;;;1.00;;
16957;SDS011;8595;52.542;11.974;2022-07-23T14:51:33;1.90;;;0.98;;
16957;SDS011;8595;52.542;11.974;2022-07-23T14:54:01;3.25;;;1.10;;
16957;SDS011;8595;52.542;11.974;2022-07-23T14:56:28;3.85;;;1.20;;
16957;SDS011;8595;52.542;11.974;2022-07-23T14:58:54;3.03;;;0.82;;